Time;durP1;ratioP1;P1;durP2;ratioP2;P2;SDS_P1;SDS_P2;PMS_P1;PMS_P2;Temp;Humidity;BMP_temperature;BMP_pressure;BME280_temperature;BME280_humidity;BME280_pressure;Samples;Min_cycle;Max_cycle;Signal;HPM_P1;HPM_P2
2021/01/23 00:00:53;;;;;;;96.87;50.90;;;;;;;;;;4954287;29;20171;-86
2021/01/23 00:03:19;;;;;;;103.70;59.43;;;;;;;;;;4954829;28;20750;-86
2021/01/23 00:05:44;;;;;;;112.20;64.33;;;;;;;;;;4937693;29;20183;-86
2021/01/23 00:08:10;;;;;;;99.27;58.70;;;;;;;;;;4955201;29;20523;-86
2021/01/23 00:10:35;;;;;;;96.40;60.77;;;;;;;;;;4954588;29;20226;-86
2021/01/23 00:13:00;;;;;;;98.77;57.97;;;;;;;;;;4954327;29;20247;-86
2021/01/23 00:15:26;;;;;;;93.30;55.77;;;;;;;;;;4937505;29;20262;-86
2021/01/23 00:17:51;;;;;;;108.60;62.67;;;;;;;;;;4954356;29;20247;-87
2021/01/23 00:20:17;;;;;;;77.80;50.83;;;;;;;;;;4937568;29;20620;-86
2021/01/23 00:22:42;;;;;;;76.33;47.00;;;;;;;;;;4954664;29;20182;-86
2021/01/23 00:25:07;;;;;;;76.30;45.90;;;;;;;;;;4954816;29;20182;-86
2021/01/23 00:27:33;;;;;;;66.87;42.33;;;;;;;;;;4954533;29;20186;-86
2021/01/23 00:29:58;;;;;;;64.03;38.53;;;;;;;;;;4954502;29;20183;-85
2021/01/23 00:32:24;;;;;;;66.60;40.80;;;;;;;;;;4954528;29;20209;-86
2021/01/23 00:34:49;;;;;;;67.23;41.10;;;;;;;;;;4954134;29;20215;-86
2021/01/23 00:37:15;;;;;;;55.03;34.57;;;;;;;;;;4954488;29;20174;-86
2021/01/23 00:39:40;;;;;;;53.17;34.93;;;;;;;;;;4954631;29;20187;-86
2021/01/23 00:42:05;;;;;;;49.47;32.53;;;;;;;;;;4957954;28;20179;-86
2021/01/23 00:44:31;;;;;;;49.53;30.97;;;;;;;;;;4958163;29;20187;-86
2021/01/23 00:46:56;;;;;;;48.10;31.60;;;;;;;;;;4958720;29;20179;-86
2021/01/23 00:49:22;;;;;;;70.80;37.87;;;;;;;;;;4941073;29;20183;-86
2021/01/23 00:51:48;;;;;;;63.93;35.50;;;;;;;;;;4941011;29;20222;-86
2021/01/23 00:54:13;;;;;;;66.50;39.13;;;;;;;;;;4958280;29;20171;-85
2021/01/23 00:56:38;;;;;;;113.20;57.47;;;;;;;;;;4958467;29;20171;-85
2021/01/23 00:59:03;;;;;;;143.27;61.67;;;;;;;;;;4958214;29;20176;-86
2021/01/23 01:01:29;;;;;;;120.17;55.93;;;;;;;;;;4957896;28;20234;-86
2021/01/23 01:03:54;;;;;;;98.07;48.23;;;;;;;;;;4958218;29;20179;-86
2021/01/23 01:06:19;;;;;;;138.80;58.77;;;;;;;;;;4958041;29;20652;-85
2021/01/23 01:08:45;;;;;;;127.17;54.57;;;;;;;;;;4957797;29;20171;-85
2021/01/23 01:11:10;;;;;;;110.07;52.10;;;;;;;;;;4940525;29;20222;-85
2021/01/23 01:13:35;;;;;;;114.10;54.20;;;;;;;;;;4958015;29;20214;-86
2021/01/23 01:16:01;;;;;;;120.40;55.83;;;;;;;;;;4940606;29;20215;-86
2021/01/23 01:18:26;;;;;;;104.50;49.87;;;;;;;;;;4957627;29;20274;-86
2021/01/23 01:20:51;;;;;;;428.67;145.60;;;;;;;;;;4957781;29;20214;-86
2021/01/23 01:23:18;;;;;;;356.90;125.67;;;;;;;;;;4957728;29;20626;-86
2021/01/23 01:25:43;;;;;;;179.63;84.07;;;;;;;;;;4957043;29;20237;-85
2021/01/23 01:28:08;;;;;;;160.83;89.37;;;;;;;;;;4957470;29;20223;-86
2021/01/23 01:30:34;;;;;;;147.20;84.33;;;;;;;;;;4957874;29;20211;-86
2021/01/23 01:32:59;;;;;;;163.00;83.77;;;;;;;;;;4957008;29;20234;-86
2021/01/23 01:35:24;;;;;;;141.93;75.67;;;;;;;;;;4940305;29;20270;-85
2021/01/23 01:37:50;;;;;;;128.23;70.67;;;;;;;;;;4957546;29;20262;-85
2021/01/23 01:40:15;;;;;;;133.00;72.40;;;;;;;;;;4956858;29;20330;-85
2021/01/23 01:42:40;;;;;;;136.27;69.90;;;;;;;;;;4957406;29;20179;-86
2021/01/23 01:45:06;;;;;;;134.97;70.87;;;;;;;;;;4957331;29;20249;-86
2021/01/23 01:47:35;;;;;;;75.70;42.70;;;;;;;;;;4956968;29;20902;-85
2021/01/23 01:50:01;;;;;;;82.20;45.63;;;;;;;;;;4957322;29;20171;-86
2021/01/23 01:52:26;;;;;;;67.10;38.40;;;;;;;;;;4956271;28;20290;-86
2021/01/23 01:54:52;;;;;;;64.83;38.60;;;;;;;;;;4957151;29;20215;-86
2021/01/23 01:57:21;;;;;;;55.10;32.40;;;;;;;;;;4957117;29;20174;-86
2021/01/23 01:59:46;;;;;;;77.60;45.10;;;;;;;;;;4956495;29;20210;-86
2021/01/23 02:02:27;;;;;;;56.17;34.17;;;;;;;;;;4956852;28;20239;-85
2021/01/23 02:04:58;;;;;;;66.67;38.67;;;;;;;;;;4956850;29;20187;-85
2021/01/23 02:07:46;;;;;;;69.40;39.60;;;;;;;;;;4956826;29;20511;-86
2021/01/23 02:10:21;;;;;;;46.17;28.07;;;;;;;;;;4943838;29;20206;-85
2021/01/23 02:12:58;;;;;;;43.90;26.93;;;;;;;;;;4939449;29;20222;-86
2021/01/23 02:15:26;;;;;;;43.23;28.87;;;;;;;;;;4956582;29;20553;-85
2021/01/23 02:18:03;;;;;;;45.20;28.70;;;;;;;;;;4956314;29;20187;-85
2021/01/23 02:20:49;;;;;;;52.23;31.17;;;;;;;;;;4956772;29;20159;-86
2021/01/23 02:23:17;;;;;;;45.13;30.07;;;;;;;;;;4956552;29;20179;-86
2021/01/23 02:26:01;;;;;;;47.93;30.00;;;;;;;;;;4956340;29;20179;-86
2021/01/23 02:28:50;;;;;;;130.80;77.70;;;;;;;;;;4956472;29;20266;-85
2021/01/23 02:31:17;;;;;;;58.07;34.80;;;;;;;;;;4911797;29;20678;-85
2021/01/23 02:33:46;;;;;;;55.57;33.87;;;;;;;;;;4956321;29;20538;-85
2021/01/23 02:36:12;;;;;;;49.57;32.40;;;;;;;;;;4956362;29;20558;-85
2021/01/23 02:38:38;;;;;;;47.17;29.53;;;;;;;;;;4956345;29;20191;-86
2021/01/23 02:41:03;;;;;;;42.43;28.40;;;;;;;;;;4956035;29;20254;-86
2021/01/23 02:43:30;;;;;;;43.57;27.87;;;;;;;;;;4955973;29;20266;-86
2021/01/23 02:45:55;;;;;;;46.23;28.37;;;;;;;;;;4939165;29;20179;-87
2021/01/23 02:48:21;;;;;;;45.93;28.43;;;;;;;;;;4938454;29;20254;-86
2021/01/23 02:50:46;;;;;;;44.27;28.90;;;;;;;;;;4955866;29;20175;-85
2021/01/23 02:53:12;;;;;;;47.67;30.17;;;;;;;;;;4956245;29;20302;-86
2021/01/23 02:55:39;;;;;;;47.70;29.83;;;;;;;;;;4956926;29;20673;-86
2021/01/23 02:58:06;;;;;;;48.67;30.40;;;;;;;;;;4956176;29;20175;-86
2021/01/23 03:00:32;;;;;;;53.50;34.37;;;;;;;;;;4956380;29;20254;-86
2021/01/23 03:02:59;;;;;;;49.10;33.57;;;;;;;;;;4939103;29;20330;-86
2021/01/23 03:05:25;;;;;;;55.70;35.37;;;;;;;;;;4955416;28;20187;-86
2021/01/23 03:07:54;;;;;;;49.77;31.00;;;;;;;;;;4957082;29;20206;-86
2021/01/23 03:10:32;;;;;;;47.57;29.37;;;;;;;;;;4956586;29;20171;-85
2021/01/23 03:12:57;;;;;;;44.73;26.50;;;;;;;;;;4955867;29;20198;-85
2021/01/23 03:15:22;;;;;;;43.70;28.77;;;;;;;;;;4956500;29;20175;-85
2021/01/23 03:17:48;;;;;;;42.93;27.10;;;;;;;;;;4956537;29;20178;-85
2021/01/23 03:20:13;;;;;;;41.80;27.37;;;;;;;;;;4956751;29;20175;-85
2021/01/23 03:22:38;;;;;;;48.17;30.87;;;;;;;;;;4956657;29;20182;-85
2021/01/23 03:25:04;;;;;;;47.80;29.97;;;;;;;;;;4956727;29;20324;-85
2021/01/23 03:27:29;;;;;;;54.50;34.43;;;;;;;;;;4956989;29;20673;-85
2021/01/23 03:29:54;;;;;;;55.20;32.63;;;;;;;;;;4956489;29;20171;-85
2021/01/23 03:32:20;;;;;;;47.60;29.00;;;;;;;;;;4955975;29;20551;-85
2021/01/23 03:34:45;;;;;;;47.17;29.33;;;;;;;;;;4956477;29;20637;-85
2021/01/23 03:37:10;;;;;;;50.00;31.00;;;;;;;;;;4956128;29;20178;-85
2021/01/23 03:39:35;;;;;;;46.87;29.83;;;;;;;;;;4956197;29;20222;-85
2021/01/23 03:42:01;;;;;;;45.00;28.80;;;;;;;;;;4956049;29;20229;-84
2021/01/23 03:44:26;;;;;;;39.67;26.77;;;;;;;;;;4956047;29;20171;-84
2021/01/23 03:46:51;;;;;;;36.63;24.80;;;;;;;;;;4955703;29;20174;-84
2021/01/23 03:49:17;;;;;;;39.70;25.47;;;;;;;;;;4956267;29;20261;-84
2021/01/23 03:51:42;;;;;;;35.90;23.80;;;;;;;;;;4955614;29;20223;-84
2021/01/23 03:54:07;;;;;;;47.57;31.57;;;;;;;;;;4955911;29;20175;-84
2021/01/23 03:56:33;;;;;;;38.97;25.03;;;;;;;;;;4955979;29;20171;-84
2021/01/23 03:58:58;;;;;;;41.50;27.97;;;;;;;;;;4956437;29;20214;-84
2021/01/23 04:01:23;;;;;;;39.00;26.43;;;;;;;;;;4955487;29;20742;-84
2021/01/23 04:03:49;;;;;;;44.60;27.57;;;;;;;;;;4955841;28;20193;-84
2021/01/23 04:06:14;;;;;;;38.03;24.27;;;;;;;;;;4956649;29;20197;-84
2021/01/23 04:08:39;;;;;;;46.80;29.37;;;;;;;;;;4956213;29;20641;-85
2021/01/23 04:11:05;;;;;;;40.67;27.13;;;;;;;;;;4955815;29;20203;-84
2021/01/23 04:13:30;;;;;;;54.17;32.53;;;;;;;;;;4955908;29;20174;-85
2021/01/23 04:15:56;;;;;;;40.60;24.97;;;;;;;;;;4958082;28;20167;-84
2021/01/23 04:18:21;;;;;;;40.50;26.53;;;;;;;;;;4961752;28;20178;-84
2021/01/23 04:20:46;;;;;;;71.23;42.63;;;;;;;;;;4962291;29;20175;-85
2021/01/23 04:23:12;;;;;;;45.70;29.40;;;;;;;;;;4961752;29;20244;-85
2021/01/23 04:25:37;;;;;;;40.30;26.40;;;;;;;;;;4961658;29;20270;-85
2021/01/23 04:28:03;;;;;;;41.13;25.20;;;;;;;;;;4961990;29;20166;-84
2021/01/23 04:30:28;;;;;;;40.13;25.13;;;;;;;;;;4962232;29;20190;-85
2021/01/23 04:32:53;;;;;;;38.50;24.70;;;;;;;;;;4944681;28;20211;-85
2021/01/23 04:35:19;;;;;;;37.13;25.83;;;;;;;;;;4962332;29;20207;-85
2021/01/23 04:37:44;;;;;;;38.43;26.03;;;;;;;;;;4961893;29;20249;-85
2021/01/23 04:40:10;;;;;;;38.60;25.30;;;;;;;;;;4962051;29;20610;-85
2021/01/23 04:42:39;;;;;;;43.80;28.93;;;;;;;;;;4962332;29;20660;-85
2021/01/23 04:45:04;;;;;;;46.83;31.10;;;;;;;;;;4962131;28;20175;-85
2021/01/23 04:47:31;;;;;;;50.50;34.87;;;;;;;;;;4961485;29;20537;-85
2021/01/23 04:49:56;;;;;;;46.13;28.50;;;;;;;;;;4961813;28;20226;-85
2021/01/23 04:52:21;;;;;;;47.93;30.30;;;;;;;;;;4961689;28;20211;-84
2021/01/23 04:54:47;;;;;;;50.57;31.80;;;;;;;;;;4961449;28;20171;-85
2021/01/23 04:57:12;;;;;;;41.10;27.53;;;;;;;;;;4961348;28;20179;-84
2021/01/23 04:59:37;;;;;;;48.43;29.47;;;;;;;;;;4961859;29;20669;-85
2021/01/23 05:02:15;;;;;;;40.70;24.63;;;;;;;;;;4961636;28;20231;-84
2021/01/23 05:04:44;;;;;;;40.90;25.20;;;;;;;;;;4961431;28;20179;-85
2021/01/23 05:07:09;;;;;;;39.10;24.70;;;;;;;;;;4961495;29;20175;-85
2021/01/23 05:09:35;;;;;;;38.73;24.10;;;;;;;;;;4961337;29;20678;-85
2021/01/23 05:12:00;;;;;;;44.10;29.67;;;;;;;;;;4961698;29;20230;-85
2021/01/23 05:14:25;;;;;;;47.13;29.27;;;;;;;;;;4961291;28;20178;-85
2021/01/23 05:16:51;;;;;;;42.13;27.27;;;;;;;;;;4961759;29;20230;-85
2021/01/23 05:19:16;;;;;;;38.90;26.30;;;;;;;;;;4961610;28;20174;-85
2021/01/23 05:21:59;;;;;;;45.10;28.47;;;;;;;;;;4961588;29;20183;-85
2021/01/23 05:24:24;;;;;;;38.17;24.63;;;;;;;;;;4961798;29;20166;-85
2021/01/23 05:26:55;;;;;;;38.63;25.57;;;;;;;;;;4961403;28;20167;-85
2021/01/23 05:29:20;;;;;;;35.67;24.73;;;;;;;;;;4957986;29;20156;-85
2021/01/23 05:31:45;;;;;;;38.27;24.43;;;;;;;;;;4958529;29;20236;-85
2021/01/23 05:34:26;;;;;;;38.83;25.07;;;;;;;;;;4958171;29;20258;-85
2021/01/23 05:36:52;;;;;;;37.67;24.87;;;;;;;;;;4958326;29;20262;-85
2021/01/23 05:39:17;;;;;;;44.10;27.90;;;;;;;;;;4958551;29;20203;-85
2021/01/23 05:42:01;;;;;;;41.67;25.77;;;;;;;;;;4957953;29;20206;-85
2021/01/23 05:44:26;;;;;;;37.30;23.50;;;;;;;;;;4958506;29;20568;-85
2021/01/23 05:46:51;;;;;;;40.63;24.77;;;;;;;;;;4957979;29;20199;-85
2021/01/23 05:49:17;;;;;;;36.67;22.60;;;;;;;;;;4957855;29;20206;-85
2021/01/23 05:51:42;;;;;;;34.97;23.80;;;;;;;;;;4958207;29;20282;-85
2021/01/23 05:54:08;;;;;;;39.73;24.37;;;;;;;;;;4958540;29;20199;-84
2021/01/23 05:56:33;;;;;;;46.17;28.93;;;;;;;;;;4958227;29;20517;-84
2021/01/23 05:58:59;;;;;;;41.97;27.23;;;;;;;;;;4957467;29;20167;-85
2021/01/23 06:01:24;;;;;;;37.00;24.53;;;;;;;;;;4957824;29;20736;-85
2021/01/23 06:03:51;;;;;;;38.70;26.00;;;;;;;;;;4957541;28;20191;-85
2021/01/23 06:06:16;;;;;;;44.77;26.67;;;;;;;;;;4957839;29;20171;-85
2021/01/23 06:08:42;;;;;;;41.40;26.10;;;;;;;;;;4957404;29;20238;-85
2021/01/23 06:11:20;;;;;;;40.50;26.77;;;;;;;;;;4957396;29;20661;-85
2021/01/23 06:13:49;;;;;;;43.80;28.97;;;;;;;;;;4957621;29;20182;-85
2021/01/23 06:16:33;;;;;;;37.13;26.57;;;;;;;;;;4957779;29;20171;-85
2021/01/23 06:18:58;;;;;;;42.53;26.93;;;;;;;;;;4957617;29;20179;-85
2021/01/23 06:21:43;;;;;;;41.73;26.67;;;;;;;;;;4957790;29;20669;-85
2021/01/23 06:24:11;;;;;;;42.00;26.10;;;;;;;;;;4957944;29;20175;-84
2021/01/23 06:26:52;;;;;;;36.13;25.57;;;;;;;;;;4957131;29;20179;-84
2021/01/23 06:29:30;;;;;;;39.33;26.97;;;;;;;;;;4957736;29;20175;-84
2021/01/23 06:31:55;;;;;;;39.30;26.07;;;;;;;;;;4957586;29;20239;-84
2021/01/23 06:34:24;;;;;;;39.10;27.10;;;;;;;;;;4957598;29;20174;-84
2021/01/23 06:37:09;;;;;;;39.37;26.07;;;;;;;;;;4956979;29;20230;-84
2021/01/23 06:39:55;;;;;;;40.10;26.20;;;;;;;;;;4957069;28;20574;-84
2021/01/23 06:42:20;;;;;;;39.40;25.83;;;;;;;;;;4957055;29;20175;-84
2021/01/23 06:44:45;;;;;;;38.03;26.50;;;;;;;;;;4957377;29;20172;-84
2021/01/23 06:47:11;;;;;;;37.03;26.40;;;;;;;;;;4956814;29;20238;-85
2021/01/23 06:49:40;;;;;;;36.80;25.73;;;;;;;;;;4939899;29;20610;-85
2021/01/23 06:52:06;;;;;;;46.80;30.50;;;;;;;;;;4956518;29;20218;-84
2021/01/23 06:54:31;;;;;;;49.73;33.07;;;;;;;;;;4956938;29;20175;-85
2021/01/23 06:56:57;;;;;;;62.97;41.13;;;;;;;;;;4956731;29;20178;-85
2021/01/23 06:59:26;;;;;;;71.83;44.73;;;;;;;;;;4956833;29;20618;-85
2021/01/23 07:01:56;;;;;;;43.47;30.40;;;;;;;;;;4956963;28;20578;-85
2021/01/23 07:04:21;;;;;;;42.47;29.80;;;;;;;;;;4957003;29;20238;-85
2021/01/23 07:06:47;;;;;;;57.87;34.97;;;;;;;;;;4956935;29;20179;-85
2021/01/23 07:09:12;;;;;;;40.77;29.43;;;;;;;;;;4956320;29;20171;-83
2021/01/23 07:11:38;;;;;;;41.57;27.73;;;;;;;;;;4956495;29;20242;-83
2021/01/23 07:14:08;;;;;;;38.63;27.70;;;;;;;;;;4956493;29;20178;-84
2021/01/23 07:16:36;;;;;;;40.47;27.97;;;;;;;;;;4956189;29;20171;-84
2021/01/23 07:19:03;;;;;;;43.07;29.03;;;;;;;;;;4957096;29;20269;-85
2021/01/23 07:21:30;;;;;;;43.43;29.67;;;;;;;;;;4956425;29;20214;-85
2021/01/23 07:23:56;;;;;;;39.30;26.93;;;;;;;;;;4956266;29;20175;-84
2021/01/23 07:26:22;;;;;;;41.07;26.73;;;;;;;;;;4956613;29;20206;-84
2021/01/23 07:28:48;;;;;;;38.97;24.40;;;;;;;;;;4956509;29;20179;-84
2021/01/23 07:31:19;;;;;;;46.03;28.03;;;;;;;;;;4956198;29;20175;-84
2021/01/23 07:33:44;;;;;;;44.27;29.87;;;;;;;;;;4956238;29;20547;-84
2021/01/23 07:36:09;;;;;;;37.20;25.63;;;;;;;;;;4956474;29;20183;-84
2021/01/23 07:38:35;;;;;;;40.30;25.80;;;;;;;;;;4956198;29;20253;-85
2021/01/23 07:41:00;;;;;;;39.20;26.00;;;;;;;;;;4956325;29;20635;-84
2021/01/23 07:43:26;;;;;;;40.20;27.70;;;;;;;;;;4956355;29;20171;-85
2021/01/23 07:45:52;;;;;;;42.30;30.20;;;;;;;;;;4956014;29;20230;-84
2021/01/23 07:48:18;;;;;;;44.33;27.70;;;;;;;;;;4956494;29;20522;-84
2021/01/23 07:50:44;;;;;;;56.23;34.30;;;;;;;;;;4955161;28;20171;-84
2021/01/23 07:53:36;;;;;;;43.57;28.90;;;;;;;;;;4956360;29;20203;-84
2021/01/23 07:56:01;;;;;;;43.53;27.97;;;;;;;;;;4951125;29;20195;-84
2021/01/23 07:58:29;;;;;;;36.47;23.00;;;;;;;;;;4956399;29;20175;-84
2021/01/23 08:00:54;;;;;;;50.73;30.67;;;;;;;;;;4938776;29;20186;-84
2021/01/23 08:03:33;;;;;;;57.67;34.40;;;;;;;;;;4956311;28;20191;-84
2021/01/23 08:05:58;;;;;;;41.97;28.93;;;;;;;;;;4955962;29;20552;-84
2021/01/23 08:08:31;;;;;;;48.13;30.53;;;;;;;;;;4955719;29;20226;-84
2021/01/23 08:10:57;;;;;;;64.50;37.77;;;;;;;;;;4955649;29;20619;-84
2021/01/23 08:13:23;;;;;;;63.07;43.80;;;;;;;;;;4955623;29;20215;-84
2021/01/23 08:15:49;;;;;;;205.57;117.57;;;;;;;;;;4955380;29;20179;-84
2021/01/23 08:18:15;;;;;;;144.00;87.10;;;;;;;;;;4955359;29;20645;-84
2021/01/23 08:20:40;;;;;;;42.03;29.73;;;;;;;;;;4956498;29;20186;-84
2021/01/23 08:23:10;;;;;;;144.97;108.83;;;;;;;;;;4955589;29;20175;-84
2021/01/23 08:25:44;;;;;;;89.10;68.33;;;;;;;;;;4955274;29;20256;-84
2021/01/23 08:28:10;;;;;;;79.27;58.57;;;;;;;;;;4955781;29;20170;-84
2021/01/23 08:30:36;;;;;;;48.03;35.13;;;;;;;;;;4955310;29;20183;-84
2021/01/23 08:33:02;;;;;;;64.83;50.17;;;;;;;;;;4955487;29;20551;-84
2021/01/23 08:35:27;;;;;;;68.10;47.90;;;;;;;;;;4955960;29;20330;-84
2021/01/23 08:37:53;;;;;;;104.70;65.93;;;;;;;;;;4955463;29;20658;-84
2021/01/23 08:40:22;;;;;;;104.83;63.00;;;;;;;;;;4955179;29;20306;-84
2021/01/23 08:42:49;;;;;;;61.97;43.77;;;;;;;;;;4955994;29;20619;-84
2021/01/23 08:45:15;;;;;;;40.87;29.73;;;;;;;;;;4955437;29;20179;-86
2021/01/23 08:47:40;;;;;;;38.43;30.33;;;;;;;;;;4955517;29;20175;-85
2021/01/23 08:50:06;;;;;;;48.73;37.03;;;;;;;;;;4955670;29;20269;-86
2021/01/23 08:52:31;;;;;;;70.87;45.00;;;;;;;;;;4955183;29;20221;-84
2021/01/23 08:54:56;;;;;;;109.30;56.30;;;;;;;;;;4955633;29;20178;-85
2021/01/23 08:57:22;;;;;;;89.97;48.43;;;;;;;;;;4955617;29;20187;-86
2021/01/23 08:59:47;;;;;;;57.93;41.43;;;;;;;;;;4938356;29;20198;-85
2021/01/23 09:02:14;;;;;;;37.33;29.07;;;;;;;;;;4954795;28;20226;-83
2021/01/23 09:04:40;;;;;;;31.83;22.37;;;;;;;;;;4958677;29;20270;-84
2021/01/23 09:07:05;;;;;;;40.73;29.13;;;;;;;;;;4958009;29;20287;-85
2021/01/23 09:09:30;;;;;;;42.80;30.20;;;;;;;;;;4958564;29;20578;-86
2021/01/23 09:11:55;;;;;;;32.93;24.80;;;;;;;;;;4958730;29;20202;-86
2021/01/23 09:14:21;;;;;;;29.80;22.23;;;;;;;;;;4958778;29;20210;-86
2021/01/23 09:16:46;;;;;;;43.63;31.13;;;;;;;;;;4958571;29;20258;-86
2021/01/23 09:19:12;;;;;;;30.90;23.97;;;;;;;;;;4942963;29;20195;-86
2021/01/23 09:21:39;;;;;;;32.57;25.20;;;;;;;;;;4939240;29;20274;-86
2021/01/23 09:24:05;;;;;;;28.20;21.00;;;;;;;;;;4954397;28;20179;-85
2021/01/23 09:26:30;;;;;;;40.37;26.73;;;;;;;;;;4957983;29;20638;-84
2021/01/23 09:28:55;;;;;;;29.33;22.63;;;;;;;;;;4958541;29;20227;-85
2021/01/23 09:31:20;;;;;;;25.57;18.53;;;;;;;;;;4958129;29;20646;-87
2021/01/23 09:33:48;;;;;;;25.57;21.67;;;;;;;;;;4958390;29;20174;-87
2021/01/23 09:36:13;;;;;;;27.23;21.47;;;;;;;;;;4957701;29;20171;-85
2021/01/23 09:38:38;;;;;;;30.90;23.80;;;;;;;;;;4958110;29;20197;-85
2021/01/23 09:41:04;;;;;;;34.27;26.40;;;;;;;;;;4958609;29;20258;-86
2021/01/23 09:43:33;;;;;;;34.27;24.97;;;;;;;;;;4956638;28;20607;-86
2021/01/23 09:45:59;;;;;;;32.17;23.80;;;;;;;;;;4956622;29;20179;-86
2021/01/23 09:48:24;;;;;;;27.20;20.07;;;;;;;;;;4955196;29;20190;-86
2021/01/23 09:50:49;;;;;;;30.00;22.00;;;;;;;;;;4956168;29;20168;-86
2021/01/23 09:53:15;;;;;;;33.37;24.27;;;;;;;;;;4956327;29;20662;-86
2021/01/23 09:55:41;;;;;;;28.60;22.60;;;;;;;;;;4956552;29;20690;-84
2021/01/23 09:58:06;;;;;;;26.20;19.77;;;;;;;;;;4939059;29;20179;-86
2021/01/23 10:00:32;;;;;;;32.60;22.67;;;;;;;;;;4956094;29;20218;-86
2021/01/23 10:02:57;;;;;;;27.90;22.27;;;;;;;;;;4956230;28;20245;-86
2021/01/23 10:05:22;;;;;;;27.03;20.93;;;;;;;;;;4957443;29;20175;-86
2021/01/23 10:07:48;;;;;;;65.53;39.73;;;;;;;;;;4957618;29;20258;-86
2021/01/23 10:10:13;;;;;;;58.97;40.80;;;;;;;;;;4958049;29;20178;-86
2021/01/23 10:12:39;;;;;;;69.33;46.50;;;;;;;;;;4956734;28;20215;-86
2021/01/23 10:15:05;;;;;;;29.00;24.07;;;;;;;;;;4956057;28;20647;-86
2021/01/23 10:17:30;;;;;;;33.70;24.57;;;;;;;;;;4940143;29;20618;-86
2021/01/23 10:19:55;;;;;;;32.87;22.53;;;;;;;;;;4955823;28;20179;-87
2021/01/23 10:22:21;;;;;;;28.73;22.07;;;;;;;;;;4939094;29;20191;-88
2021/01/23 10:24:46;;;;;;;46.10;31.27;;;;;;;;;;4940723;29;20183;-87
2021/01/23 10:27:11;;;;;;;44.17;30.00;;;;;;;;;;4957669;29;20175;-88
2021/01/23 10:29:37;;;;;;;33.30;24.27;;;;;;;;;;4956870;29;20269;-88
2021/01/23 10:32:03;;;;;;;34.47;24.50;;;;;;;;;;4939695;29;20301;-89
2021/01/23 10:34:28;;;;;;;37.33;26.27;;;;;;;;;;4940080;29;20191;-88
2021/01/23 10:36:54;;;;;;;38.57;28.13;;;;;;;;;;4957271;29;20182;-87
2021/01/23 10:39:19;;;;;;;29.03;21.67;;;;;;;;;;4956706;29;20543;-88
2021/01/23 10:41:45;;;;;;;27.77;20.77;;;;;;;;;;4957227;29;20206;-88
2021/01/23 10:44:11;;;;;;;31.80;23.70;;;;;;;;;;4956628;29;20193;-87
2021/01/23 10:46:36;;;;;;;25.13;19.63;;;;;;;;;;4949678;29;20261;-87
2021/01/23 10:49:02;;;;;;;24.67;18.73;;;;;;;;;;4956212;28;20183;-87
2021/01/23 10:51:28;;;;;;;21.73;18.30;;;;;;;;;;4955601;28;20218;-87
2021/01/23 10:53:53;;;;;;;24.87;19.37;;;;;;;;;;4939542;29;20286;-87
2021/01/23 10:56:18;;;;;;;24.33;18.87;;;;;;;;;;4938333;28;20191;-87
2021/01/23 10:58:44;;;;;;;25.33;18.50;;;;;;;;;;4939049;29;20183;-87
2021/01/23 11:01:09;;;;;;;23.73;19.03;;;;;;;;;;4937326;29;20238;-88
2021/01/23 11:03:34;;;;;;;24.73;17.77;;;;;;;;;;4954653;28;20668;-87
2021/01/23 11:06:00;;;;;;;25.13;19.10;;;;;;;;;;4955502;29;20229;-87
2021/01/23 11:08:27;;;;;;;29.00;19.63;;;;;;;;;;4956510;29;20183;-88
2021/01/23 11:10:53;;;;;;;29.93;21.77;;;;;;;;;;4954897;28;20630;-88
2021/01/23 11:13:18;;;;;;;28.67;21.67;;;;;;;;;;4956277;29;20215;-87
2021/01/23 11:15:44;;;;;;;28.63;21.23;;;;;;;;;;4939606;29;20186;-86
2021/01/23 11:18:09;;;;;;;30.93;22.67;;;;;;;;;;4939316;29;20195;-87
2021/01/23 11:20:34;;;;;;;35.27;25.00;;;;;;;;;;4953614;29;20266;-87
2021/01/23 11:23:00;;;;;;;31.67;23.77;;;;;;;;;;4946168;29;20171;-87
2021/01/23 11:25:27;;;;;;;33.50;24.70;;;;;;;;;;4950919;28;20313;-86
2021/01/23 11:27:54;;;;;;;36.50;26.47;;;;;;;;;;4943988;29;20587;-86
2021/01/23 11:30:20;;;;;;;40.73;27.17;;;;;;;;;;4955587;29;20546;-86
2021/01/23 11:32:46;;;;;;;42.20;29.70;;;;;;;;;;4961719;29;20223;-87
2021/01/23 11:35:11;;;;;;;41.13;27.67;;;;;;;;;;4942363;29;20228;-87
2021/01/23 11:37:37;;;;;;;44.80;27.87;;;;;;;;;;4956584;29;20179;-87
2021/01/23 11:40:04;;;;;;;30.97;20.63;;;;;;;;;;4955443;28;20179;-86
2021/01/23 11:42:29;;;;;;;31.77;21.07;;;;;;;;;;4955121;28;20183;-87
2021/01/23 11:45:00;;;;;;;30.07;21.73;;;;;;;;;;4961186;29;20175;-86
2021/01/23 11:47:26;;;;;;;34.47;26.40;;;;;;;;;;4960442;28;20251;-84
2021/01/23 11:49:51;;;;;;;35.60;25.60;;;;;;;;;;4924514;29;20219;-87
2021/01/23 11:53:00;;;;;;;36.57;24.80;;;;;;;;;;4958383;29;20356;-85
2021/01/23 11:55:26;;;;;;;49.10;34.20;;;;;;;;;;4943847;29;20187;-86
2021/01/23 11:57:51;;;;;;;25.80;19.97;;;;;;;;;;4959791;29;20178;-87
2021/01/23 12:00:17;;;;;;;37.80;26.57;;;;;;;;;;4940568;29;20179;-86
2021/01/23 12:02:43;;;;;;;60.37;39.33;;;;;;;;;;4953730;28;20632;-86
2021/01/23 12:05:09;;;;;;;52.50;33.27;;;;;;;;;;4953659;29;20179;-87
2021/01/23 12:07:34;;;;;;;49.77;32.70;;;;;;;;;;4944041;29;20184;-85
2021/01/23 12:10:00;;;;;;;46.63;33.57;;;;;;;;;;4945711;29;20209;-87
2021/01/23 12:12:25;;;;;;;31.33;22.50;;;;;;;;;;4936544;29;20697;-87
2021/01/23 12:14:50;;;;;;;46.53;36.87;;;;;;;;;;4954473;29;20178;-86
2021/01/23 12:17:16;;;;;;;35.67;24.57;;;;;;;;;;4937770;29;20194;-86
2021/01/23 12:19:42;;;;;;;33.27;23.40;;;;;;;;;;4954758;29;20265;-87
2021/01/23 12:22:08;;;;;;;32.70;26.53;;;;;;;;;;4955022;29;20183;-86
2021/01/23 12:24:33;;;;;;;40.27;29.37;;;;;;;;;;4950785;28;20230;-86
2021/01/23 12:26:59;;;;;;;32.70;21.97;;;;;;;;;;4954573;29;20258;-86
2021/01/23 12:29:24;;;;;;;39.30;28.23;;;;;;;;;;4947314;29;20207;-87
2021/01/23 12:31:49;;;;;;;41.13;28.57;;;;;;;;;;4954344;29;20224;-86
2021/01/23 12:34:16;;;;;;;30.57;20.47;;;;;;;;;;4954034;29;20262;-87
2021/01/23 12:36:42;;;;;;;54.60;39.13;;;;;;;;;;4936332;29;20184;-87
2021/01/23 12:39:07;;;;;;;44.57;31.73;;;;;;;;;;4939055;29;20512;-87
2021/01/23 12:41:32;;;;;;;34.73;25.90;;;;;;;;;;4933015;29;20646;-86
2021/01/23 12:43:58;;;;;;;41.97;27.00;;;;;;;;;;4958518;29;20213;-87
2021/01/23 12:46:23;;;;;;;35.80;26.30;;;;;;;;;;4958473;29;20183;-88
2021/01/23 12:48:49;;;;;;;38.33;27.30;;;;;;;;;;4958453;29;20175;-87
2021/01/23 12:51:16;;;;;;;21.57;16.27;;;;;;;;;;4958428;29;20176;-88
2021/01/23 12:53:42;;;;;;;24.13;18.60;;;;;;;;;;4957904;29;20183;-87
2021/01/23 12:56:08;;;;;;;32.47;24.13;;;;;;;;;;4957937;29;20175;-87
2021/01/23 12:58:33;;;;;;;37.50;23.87;;;;;;;;;;4957069;29;20190;-87
2021/01/23 13:00:58;;;;;;;30.30;19.47;;;;;;;;;;4939679;29;20523;-88
2021/01/23 13:03:24;;;;;;;33.73;23.80;;;;;;;;;;4956475;28;20206;-88
2021/01/23 13:05:50;;;;;;;31.40;22.10;;;;;;;;;;4957991;29;20182;-88
2021/01/23 13:08:15;;;;;;;32.07;20.77;;;;;;;;;;4940612;29;20186;-88
2021/01/23 13:10:41;;;;;;;32.20;20.60;;;;;;;;;;4958307;29;20167;-89
2021/01/23 13:13:07;;;;;;;37.27;24.23;;;;;;;;;;4957752;29;20607;-88
2021/01/23 13:15:32;;;;;;;40.57;26.30;;;;;;;;;;4957832;29;20214;-88
2021/01/23 13:17:57;;;;;;;43.90;26.73;;;;;;;;;;4940687;29;20326;-87
2021/01/23 13:20:23;;;;;;;37.93;26.17;;;;;;;;;;4957747;29;20278;-89
2021/01/23 13:22:48;;;;;;;25.67;17.33;;;;;;;;;;4924704;29;20195;-88
2021/01/23 13:25:14;;;;;;;32.40;23.37;;;;;;;;;;4938610;29;20196;-87
2021/01/23 13:27:40;;;;;;;27.43;20.23;;;;;;;;;;4941617;29;20187;-88
2021/01/23 13:30:06;;;;;;;25.60;19.73;;;;;;;;;;4935052;29;20523;-89
2021/01/23 13:32:31;;;;;;;29.27;21.40;;;;;;;;;;4957503;28;20214;-89
2021/01/23 13:34:57;;;;;;;27.67;18.97;;;;;;;;;;4957569;29;20171;-88
2021/01/23 13:37:22;;;;;;;31.40;21.90;;;;;;;;;;4957254;29;20246;-87
2021/01/23 13:39:47;;;;;;;32.63;24.07;;;;;;;;;;4957408;29;20184;-88
2021/01/23 13:42:13;;;;;;;26.47;19.67;;;;;;;;;;4956954;29;20186;-88
2021/01/23 13:44:38;;;;;;;52.37;32.27;;;;;;;;;;4956292;29;20187;-88
2021/01/23 13:47:03;;;;;;;42.03;26.97;;;;;;;;;;4956393;29;20278;-87
2021/01/23 13:49:29;;;;;;;34.73;23.50;;;;;;;;;;4939123;29;20605;-88
2021/01/23 13:51:54;;;;;;;32.63;24.27;;;;;;;;;;4956402;29;20658;-87
2021/01/23 13:54:19;;;;;;;36.33;25.47;;;;;;;;;;4955679;29;20680;-88
2021/01/23 13:56:45;;;;;;;34.60;22.90;;;;;;;;;;4955672;29;20190;-88
2021/01/23 13:59:10;;;;;;;31.37;20.73;;;;;;;;;;4955596;29;20179;-89
2021/01/23 14:01:37;;;;;;;31.03;21.03;;;;;;;;;;4938889;29;20720;-87
2021/01/23 14:04:02;;;;;;;29.20;19.57;;;;;;;;;;4955922;29;20674;-86
2021/01/23 14:06:29;;;;;;;24.37;18.33;;;;;;;;;;4956008;29;20171;-86
2021/01/23 14:08:54;;;;;;;29.67;21.83;;;;;;;;;;4955872;29;20219;-88
2021/01/23 14:11:19;;;;;;;27.10;18.50;;;;;;;;;;4956060;29;20573;-88
2021/01/23 14:13:45;;;;;;;38.30;25.17;;;;;;;;;;4956879;29;20537;-89